createdAt,value
2023-01-19T00:01:48.000Z,79.98
2023-01-19T00:04:18.625Z,79.84
2023-01-19T00:06:49.607Z,80.09
2023-01-19T00:09:22.152Z,80.18
2023-01-19T00:11:52.828Z,80.21
2023-01-19T00:14:26.400Z,80.03
2023-01-19T00:16:56.794Z,80.19
2023-01-19T00:19:27.635Z,80.11
2023-01-19T00:21:58.231Z,80.21
2023-01-19T00:24:28.696Z,80.11
2023-01-19T00:26:59.204Z,80.25
2023-01-19T00:29:33.450Z,80.40
2023-01-19T00:32:04.615Z,80.24
2023-01-19T00:34:39.518Z,80.28
2023-01-19T00:37:10.019Z,80.40
2023-01-19T00:39:40.732Z,80.16
2023-01-19T00:42:30.402Z,80.34
2023-01-19T00:45:00.872Z,80.26
2023-01-19T00:47:32.203Z,80.52
2023-01-19T00:50:02.655Z,80.64
2023-01-19T00:52:33.072Z,80.66
2023-01-19T00:55:03.924Z,80.59
2023-01-19T00:57:34.412Z,80.47
2023-01-19T01:00:07.120Z,80.50
2023-01-19T01:02:37.975Z,80.32
2023-01-19T01:05:09.586Z,80.50
2023-01-19T01:07:41.607Z,80.45
2023-01-19T01:10:14.423Z,80.22
2023-01-19T01:12:56.917Z,80.50
2023-01-19T01:15:29.945Z,80.39
2023-01-19T01:18:00.655Z,80.44
2023-01-19T01:20:33.662Z,80.34
2023-01-19T01:23:04.690Z,80.41
2023-01-19T01:25:37.782Z,80.43
2023-01-19T01:28:09.732Z,80.40
2023-01-19T01:30:41.153Z,80.61
2023-01-19T01:33:13.281Z,80.45
2023-01-19T01:35:44.107Z,80.21
2023-01-19T01:38:14.947Z,80.53
2023-01-19T01:40:45.896Z,80.38
2023-01-19T01:43:18.461Z,80.46
2023-01-19T01:45:49.519Z,80.44
2023-01-19T01:48:23.266Z,80.61
2023-01-19T01:51:14.833Z,80.42
2023-01-19T01:53:48.482Z,80.48
2023-01-19T01:56:22.679Z,80.47
2023-01-19T01:58:53.454Z,80.27
2023-01-19T02:01:41.966Z,80.37
2023-01-19T02:04:12.846Z,80.32
2023-01-19T02:07:01.141Z,80.48
2023-01-19T02:09:52.026Z,80.15
2023-01-19T02:12:41.228Z,80.27
2023-01-19T02:15:20.571Z,80.21
2023-01-19T02:17:51.126Z,80.34
2023-01-19T02:20:27.191Z,80.33
2023-01-19T02:23:03.223Z,80.22
2023-01-19T02:25:35.629Z,80.10
2023-01-19T02:28:07.643Z,80.25
2023-01-19T02:30:40.497Z,80.16
2023-01-19T02:33:10.935Z,80.22
2023-01-19T02:35:42.460Z,80.16
2023-01-19T02:38:14.853Z,80.20
2023-01-19T02:40:46.766Z,80.36
2023-01-19T02:43:21.049Z,80.34
2023-01-19T02:45:51.877Z,80.21
2023-01-19T02:48:23.306Z,80.25
2023-01-19T02:50:59.456Z,80.02
2023-01-19T02:54:04.273Z,80.41
2023-01-19T02:57:00.934Z,80.29
2023-01-19T02:59:44.952Z,80.37
2023-01-19T03:02:28.930Z,80.28
2023-01-19T03:05:17.295Z,80.23
2023-01-19T03:07:58.453Z,80.36
2023-01-19T03:10:40.377Z,80.33
2023-01-19T03:13:15.911Z,80.23
2023-01-19T03:15:50.885Z,80.45
2023-01-19T03:18:24.512Z,80.28
2023-01-19T03:21:00.442Z,80.21
2023-01-19T03:23:35.597Z,80.43
2023-01-19T03:26:09.535Z,80.40
2023-01-19T03:28:43.045Z,80.47
2023-01-19T03:31:17.653Z,80.45
2023-01-19T03:33:51.614Z,80.49
2023-01-19T03:36:27.922Z,80.62
2023-01-19T03:39:02.276Z,80.59
2023-01-19T03:41:35.232Z,80.66
2023-01-19T03:44:06.901Z,80.69
2023-01-19T03:46:37.788Z,80.59
2023-01-19T03:49:09.171Z,80.50
2023-01-19T03:51:40.647Z,80.55
2023-01-19T03:54:12.732Z,80.68
2023-01-19T03:56:43.648Z,80.72
2023-01-19T03:59:17.499Z,80.78
2023-01-19T04:01:47.988Z,80.98
2023-01-19T04:04:19.217Z,80.67
2023-01-19T04:06:49.953Z,80.92
2023-01-19T04:09:20.353Z,81.05
2023-01-19T04:11:51.424Z,81.13
2023-01-19T04:14:22.390Z,81.13
2023-01-19T04:16:52.816Z,81.30
2023-01-19T04:19:23.732Z,81.56
2023-01-19T04:21:55.384Z,81.25
2023-01-19T04:24:25.815Z,81.43
2023-01-19T04:26:56.535Z,81.45
2023-01-19T04:29:26.890Z,81.70
2023-01-19T04:31:57.720Z,81.57
2023-01-19T04:34:28.323Z,81.58
2023-01-19T04:36:58.957Z,81.59
2023-01-19T04:39:29.327Z,81.48
2023-01-19T04:42:00.769Z,81.33
2023-01-19T04:44:31.498Z,81.36
2023-01-19T04:47:02.883Z,81.39
2023-01-19T04:49:34.003Z,81.34
2023-01-19T04:52:07.804Z,81.54
2023-01-19T04:54:38.211Z,81.40
2023-01-19T04:57:08.616Z,81.35
2023-01-19T04:59:38.971Z,81.36
2023-01-19T05:02:09.669Z,81.50
2023-01-19T05:04:40.594Z,81.33
2023-01-19T05:07:11.271Z,81.49
2023-01-19T05:09:41.642Z,81.66
2023-01-19T05:12:12.552Z,81.74
2023-01-19T05:14:43.234Z,81.51
2023-01-19T05:17:14.291Z,81.44
2023-01-19T05:19:44.936Z,81.48
2023-01-19T05:22:16.075Z,81.52
2023-01-19T05:24:47.112Z,81.62
2023-01-19T05:27:17.561Z,81.57
2023-01-19T05:29:48.155Z,81.57
2023-01-19T05:32:18.947Z,81.40
2023-01-19T05:34:49.513Z,81.54
2023-01-19T05:37:20.536Z,81.56
2023-01-19T05:39:50.898Z,81.34
2023-01-19T05:42:21.523Z,81.39
2023-01-19T05:44:52.895Z,81.33
2023-01-19T05:47:23.287Z,81.38
2023-01-19T05:49:53.667Z,81.28
2023-01-19T05:52:25.036Z,81.26
2023-01-19T05:54:56.103Z,81.23
2023-01-19T05:57:26.525Z,81.55
2023-01-19T05:59:56.901Z,81.53
2023-01-19T06:02:28.775Z,81.54
2023-01-19T06:04:59.469Z,81.44
2023-01-19T06:07:29.796Z,81.37
2023-01-19T06:10:00.156Z,81.59
2023-01-19T06:12:30.509Z,81.43
2023-01-19T06:15:01.027Z,81.67
2023-01-19T06:17:32.547Z,81.53
2023-01-19T06:20:03.606Z,81.83
2023-01-19T06:22:34.103Z,81.74
2023-01-19T06:25:04.792Z,81.65
2023-01-19T06:27:36.378Z,81.75
2023-01-19T06:30:08.211Z,81.76
2023-01-19T06:32:38.585Z,81.73
2023-01-19T06:35:10.342Z,81.68
2023-01-19T06:37:41.131Z,81.66
2023-01-19T06:40:14.482Z,81.61
2023-01-19T06:42:45.717Z,81.56
2023-01-19T06:45:16.436Z,81.38
2023-01-19T06:47:49.440Z,81.29
2023-01-19T06:50:20.684Z,80.95
2023-01-19T06:52:53.623Z,81.09
2023-01-19T06:55:24.416Z,80.88
2023-01-19T06:58:01.864Z,80.85
2023-01-19T07:00:32.516Z,80.82
2023-01-19T07:03:03.818Z,81.07
2023-01-19T07:05:37.945Z,81.01
2023-01-19T07:08:08.489Z,81.10
2023-01-19T07:11:26.743Z,81.07
2023-01-19T07:13:30.249Z,81.02
2023-01-19T07:16:00.751Z,81.15
2023-01-19T07:18:31.817Z,80.97
2023-01-19T07:21:02.409Z,80.89
2023-01-19T07:23:33.026Z,80.87
2023-01-19T07:26:03.875Z,80.75
2023-01-19T07:28:34.263Z,80.77
2023-01-19T07:31:05.128Z,80.65
2023-01-19T07:33:35.889Z,80.36
2023-01-19T07:36:07.898Z,80.43
2023-01-19T07:38:38.629Z,80.27
2023-01-19T07:41:10.981Z,80.15
2023-01-19T07:43:41.311Z,80.01
2023-01-19T07:46:11.756Z,80.00
2023-01-19T07:48:44.335Z,79.98
2023-01-19T07:51:18.125Z,79.99
2023-01-19T07:53:50.541Z,80.04
2023-01-19T07:56:22.038Z,79.88
2023-01-19T07:58:52.880Z,79.73
2023-01-19T08:01:25.987Z,79.65
2023-01-19T08:03:56.356Z,79.50
2023-01-19T08:06:33.743Z,79.47
2023-01-19T08:09:05.694Z,79.45
2023-01-19T08:11:36.728Z,79.26
2023-01-19T08:14:08.173Z,79.54
2023-01-19T08:16:38.743Z,79.17
2023-01-19T08:19:09.294Z,78.95
2023-01-19T08:21:39.931Z,78.91
2023-01-19T08:24:21.445Z,78.95
2023-01-19T08:26:52.043Z,78.61
2023-01-19T08:29:22.407Z,78.58
2023-01-19T08:31:55.456Z,78.72
2023-01-19T08:34:26.203Z,78.59
2023-01-19T08:36:56.839Z,78.51
2023-01-19T08:39:27.403Z,78.38
2023-01-19T08:41:59.227Z,78.24
2023-01-19T08:44:29.614Z,78.15
2023-01-19T08:47:00.768Z,78.19
2023-01-19T08:49:31.359Z,78.25
2023-01-19T08:52:03.071Z,78.36
2023-01-19T08:54:33.600Z,78.31
2023-01-19T08:57:04.077Z,78.57
2023-01-19T08:59:34.990Z,78.49
2023-01-19T09:02:05.421Z,78.59
2023-01-19T09:04:36.384Z,78.66
2023-01-19T09:09:43.476Z,78.62
2023-01-19T09:12:14.352Z,78.82
2023-01-19T09:14:44.740Z,78.79
2023-01-19T09:17:18.094Z,78.84
2023-01-19T09:19:48.432Z,78.99
2023-01-19T09:22:18.878Z,79.17
2023-01-19T09:24:49.972Z,79.21
2023-01-19T09:27:20.447Z,79.05
2023-01-19T09:29:54.025Z,79.20
2023-01-19T09:32:24.623Z,79.05
2023-01-19T09:34:56.513Z,78.94
2023-01-19T09:37:27.303Z,78.89
2023-01-19T09:39:57.908Z,78.61
2023-01-19T09:42:34.445Z,78.62
2023-01-19T09:45:11.435Z,78.49
2023-01-19T09:47:43.020Z,78.50
2023-01-19T09:50:21.816Z,78.31
2023-01-19T09:53:01.557Z,78.31
2023-01-19T09:55:33.227Z,78.33
2023-01-19T09:58:04.868Z,77.97
2023-01-19T10:00:35.347Z,77.98
2023-01-19T10:03:16.183Z,77.97
2023-01-19T10:05:50.503Z,77.80
2023-01-19T10:08:32.107Z,77.76
2023-01-19T10:11:02.904Z,77.66
2023-01-19T10:13:41.330Z,77.73
2023-01-19T10:16:25.814Z,77.81
2023-01-19T10:19:00.269Z,77.27
2023-01-19T10:21:35.541Z,77.34
2023-01-19T10:24:12.113Z,77.11
2023-01-19T10:26:48.081Z,76.70
2023-01-19T10:29:27.412Z,77.08
2023-01-19T10:32:05.826Z,77.08
2023-01-19T10:34:36.681Z,77.03
2023-01-19T10:37:18.884Z,76.77
2023-01-19T10:39:54.126Z,76.70
2023-01-19T10:42:24.696Z,76.78
2023-01-19T10:44:55.666Z,76.39
2023-01-19T10:47:37.042Z,76.92
2023-01-19T10:50:26.419Z,76.28
2023-01-19T10:52:58.445Z,76.35
2023-01-19T10:55:31.796Z,76.25
2023-01-19T10:58:03.092Z,76.24
2023-01-19T11:00:38.125Z,76.37
2023-01-19T11:03:25.444Z,76.15
2023-01-19T11:06:16.357Z,76.29
2023-01-19T11:08:48.398Z,76.49
2023-01-19T11:11:20.866Z,76.25
2023-01-19T11:14:08.567Z,76.51
2023-01-19T11:16:40.270Z,76.44
2023-01-19T11:19:23.094Z,76.84
2023-01-19T11:21:54.673Z,76.66
2023-01-19T11:24:25.731Z,76.75
2023-01-19T11:27:03.032Z,76.72
2023-01-19T11:29:33.508Z,76.81
2023-01-19T11:32:20.379Z,77.19
2023-01-19T11:34:51.388Z,77.38
2023-01-19T11:37:34.523Z,77.45
2023-01-19T11:40:14.432Z,77.69
2023-01-19T11:42:45.237Z,77.59
2023-01-19T11:45:19.856Z,77.56
2023-01-19T11:47:52.573Z,77.29
2023-01-19T11:50:29.422Z,77.36
2023-01-19T11:53:05.669Z,77.10
2023-01-19T11:55:42.821Z,77.36
2023-01-19T11:58:17.853Z,77.27
2023-01-19T12:00:53.024Z,77.10
2023-01-19T12:03:30.569Z,77.27
2023-01-19T12:06:05.665Z,77.51
2023-01-19T12:08:40.976Z,77.29
2023-01-19T12:11:17.167Z,77.43
2023-01-19T12:13:49.368Z,77.45
2023-01-19T12:16:23.801Z,77.40
2023-01-19T12:18:57.224Z,77.76
2023-01-19T12:21:27.612Z,77.89
2023-01-19T12:24:11.375Z,78.27
2023-01-19T12:26:49.816Z,77.91
2023-01-19T12:29:24.943Z,77.78
2023-01-19T12:32:20.058Z,77.94
2023-01-19T12:34:51.917Z,77.81
2023-01-19T12:37:37.333Z,77.48
2023-01-19T12:40:24.848Z,77.41
2023-01-19T12:43:00.227Z,77.60
2023-01-19T12:45:35.559Z,77.37
2023-01-19T12:48:11.572Z,77.74
2023-01-19T12:50:47.060Z,77.73
2023-01-19T12:53:22.592Z,77.60
2023-01-19T12:56:05.986Z,77.45
2023-01-19T12:58:37.250Z,77.67
2023-01-19T13:01:21.058Z,77.71
2023-01-19T13:04:28.787Z,77.98
2023-01-19T13:07:17.903Z,78.05
2023-01-19T13:09:48.351Z,78.67
2023-01-19T13:12:26.230Z,79.43
2023-01-19T13:15:30.153Z,79.94
2023-01-19T13:18:01.812Z,80.52
2023-01-19T13:20:43.275Z,80.74
2023-01-19T13:23:23.917Z,80.99
2023-01-19T13:26:07.462Z,81.18
2023-01-19T13:28:42.759Z,81.33
2023-01-19T13:31:14.397Z,81.56
2023-01-19T13:33:51.712Z,81.85
2023-01-19T13:36:31.616Z,82.01
2023-01-19T13:39:04.762Z,81.93
2023-01-19T13:41:40.620Z,82.08
2023-01-19T13:44:19.415Z,82.03
2023-01-19T13:46:51.237Z,82.32
2023-01-19T13:49:28.471Z,82.56
2023-01-19T13:52:13.263Z,82.90
2023-01-19T13:54:53.203Z,83.08
2023-01-19T13:57:27.422Z,83.16
2023-01-19T14:00:19.471Z,83.12
2023-01-19T14:02:59.975Z,83.37
2023-01-19T14:05:32.582Z,83.45
2023-01-19T14:08:13.612Z,83.41
2023-01-19T14:10:45.863Z,83.37
2023-01-19T14:13:18.905Z,83.50
2023-01-19T14:15:51.855Z,83.78
2023-01-19T14:18:31.006Z,84.15
2023-01-19T14:21:04.188Z,84.32
2023-01-19T14:23:47.136Z,84.41
2023-01-19T14:26:46.704Z,84.55
2023-01-19T14:29:28.307Z,84.23
2023-01-19T14:32:14.805Z,84.61
2023-01-19T14:34:47.625Z,84.63
2023-01-19T14:37:24.303Z,84.80
2023-01-19T14:39:58.115Z,85.05
2023-01-19T14:42:32.510Z,84.83
2023-01-19T14:45:05.821Z,84.69
2023-01-19T14:47:39.628Z,85.00
2023-01-19T14:50:19.940Z,84.86
2023-01-19T14:52:56.287Z,84.98
2023-01-19T14:55:34.377Z,85.00
2023-01-19T14:58:03.450Z,84.88
2023-01-19T15:00:34.253Z,85.19
2023-01-19T15:03:06.129Z,84.97
2023-01-19T15:05:37.058Z,85.16
2023-01-19T15:08:08.554Z,85.44
2023-01-19T15:10:39.177Z,85.19
2023-01-19T15:13:16.948Z,85.41
2023-01-19T15:15:49.750Z,85.19
2023-01-19T15:18:26.204Z,85.27
2023-01-19T15:21:02.593Z,85.15
2023-01-19T15:23:34.101Z,85.12
2023-01-19T15:26:05.675Z,85.26
2023-01-19T15:28:36.029Z,85.28
2023-01-19T15:31:06.652Z,85.50
2023-01-19T15:33:37.340Z,85.34
2023-01-19T15:36:11.249Z,85.55
2023-01-19T15:38:41.632Z,85.59
2023-01-19T15:41:16.077Z,85.51
2023-01-19T15:43:47.991Z,85.45
2023-01-19T15:46:21.613Z,85.48
2023-01-19T15:48:52.853Z,85.54
2023-01-19T15:51:26.116Z,85.49
2023-01-19T15:53:57.299Z,85.53
2023-01-19T15:56:30.217Z,85.49
2023-01-19T15:59:02.543Z,85.80
2023-01-19T16:01:34.723Z,85.67
2023-01-19T16:04:07.160Z,85.68
2023-01-19T16:06:37.576Z,85.51
2023-01-19T16:09:08.195Z,85.71
2023-01-19T16:11:38.659Z,85.41
2023-01-19T16:14:09.020Z,85.44
2023-01-19T16:16:39.780Z,85.50
2023-01-19T16:19:10.131Z,85.80
2023-01-19T16:21:40.490Z,85.58
2023-01-19T16:24:10.977Z,85.89
2023-01-19T16:26:41.674Z,85.84
2023-01-19T16:29:12.218Z,85.95
2023-01-19T16:31:45.331Z,86.18
2023-01-19T16:34:16.397Z,86.12
2023-01-19T16:36:46.759Z,86.17
2023-01-19T16:39:17.977Z,85.90
2023-01-19T16:41:48.674Z,86.44
2023-01-19T16:44:19.517Z,86.46
2023-01-19T16:46:50.641Z,86.25
2023-01-19T16:49:22.947Z,86.45
2023-01-19T16:51:55.274Z,86.14
2023-01-19T16:54:27.210Z,86.36
2023-01-19T16:56:58.610Z,86.38
2023-01-19T16:59:29.274Z,86.27
2023-01-19T17:02:00.681Z,86.52
2023-01-19T17:04:31.353Z,86.46
2023-01-19T17:07:01.976Z,86.31
2023-01-19T17:09:32.353Z,86.25
2023-01-19T17:12:03.039Z,86.32
2023-01-19T17:14:43.089Z,86.33
2023-01-19T17:17:13.957Z,86.28
2023-01-19T17:19:45.102Z,86.26
2023-01-19T17:22:15.746Z,86.29
2023-01-19T17:24:47.457Z,86.22
2023-01-19T17:27:18.470Z,86.53
2023-01-19T17:29:50.030Z,86.44
2023-01-19T17:32:21.344Z,86.52
2023-01-19T17:34:52.528Z,86.56
2023-01-19T17:37:23.867Z,86.47
2023-01-19T17:39:55.460Z,86.66
2023-01-19T17:42:25.819Z,86.61
2023-01-19T17:44:56.554Z,86.61
2023-01-19T17:47:26.882Z,86.67
2023-01-19T17:49:57.245Z,86.75
2023-01-19T17:52:27.648Z,86.72
2023-01-19T17:55:08.222Z,86.64
2023-01-19T17:57:38.615Z,86.57
2023-01-19T18:00:11.466Z,86.47
2023-01-19T18:02:42.362Z,86.50
2023-01-19T18:05:14.282Z,86.43
2023-01-19T18:07:45.243Z,86.48
2023-01-19T18:10:16.109Z,86.56
2023-01-19T18:12:47.289Z,86.46
2023-01-19T18:15:17.766Z,86.47
2023-01-19T18:17:48.275Z,86.57
2023-01-19T18:20:19.299Z,86.44
2023-01-19T18:22:49.698Z,86.69
2023-01-19T18:25:20.140Z,86.57
2023-01-19T18:27:50.552Z,86.66
2023-01-19T18:30:24.828Z,86.52
2023-01-19T18:32:55.892Z,86.78
2023-01-19T18:35:28.790Z,87.02
2023-01-19T18:37:59.444Z,86.98
2023-01-19T18:40:30.019Z,86.76
2023-01-19T18:43:00.673Z,86.83
2023-01-19T18:45:31.312Z,86.99
2023-01-19T18:48:03.167Z,86.91
2023-01-19T18:50:34.653Z,86.81
2023-01-19T18:53:05.767Z,86.88
2023-01-19T18:55:36.608Z,86.74
2023-01-19T18:58:08.788Z,86.74
2023-01-19T19:00:39.226Z,86.57
2023-01-19T19:03:13.448Z,86.59
2023-01-19T19:05:44.010Z,86.67
2023-01-19T19:08:14.976Z,86.74
2023-01-19T19:10:45.934Z,86.69
2023-01-19T19:13:17.705Z,86.73
2023-01-19T19:15:48.572Z,86.85
2023-01-19T19:18:19.315Z,86.74
2023-01-19T19:20:49.615Z,86.66
2023-01-19T19:23:20.477Z,86.95
2023-01-19T19:25:51.405Z,86.88
2023-01-19T19:28:22.002Z,86.86
2023-01-19T19:31:02.686Z,86.93
2023-01-19T19:33:33.630Z,86.80
2023-01-19T19:36:04.663Z,86.76
2023-01-19T19:38:36.746Z,86.90
2023-01-19T19:41:13.304Z,86.75
2023-01-19T19:43:43.609Z,86.93
2023-01-19T19:46:15.996Z,86.82
2023-01-19T19:48:46.356Z,86.80
2023-01-19T19:51:19.512Z,86.83
2023-01-19T19:53:51.778Z,86.86
2023-01-19T19:56:24.163Z,86.93
2023-01-19T19:58:57.048Z,86.88
2023-01-19T20:01:32.663Z,86.91
2023-01-19T20:04:07.962Z,86.96
2023-01-19T20:06:39.866Z,86.95
2023-01-19T20:09:14.194Z,86.89
2023-01-19T20:11:46.685Z,86.91
2023-01-19T20:14:18.247Z,86.92
2023-01-19T20:16:49.541Z,86.82
2023-01-19T20:19:19.996Z,87.02
2023-01-19T20:21:50.602Z,86.84
2023-01-19T20:24:22.539Z,87.22
2023-01-19T20:26:56.267Z,87.04
2023-01-19T20:29:26.751Z,87.02
2023-01-19T20:31:58.338Z,86.85
2023-01-19T20:34:33.302Z,87.06
2023-01-19T20:37:06.043Z,87.03
2023-01-19T20:39:37.203Z,87.13
2023-01-19T20:42:11.222Z,87.04
2023-01-19T20:44:42.354Z,86.96
2023-01-19T20:47:12.844Z,86.99
2023-01-19T20:49:43.467Z,86.96
2023-01-19T20:52:13.980Z,87.02
2023-01-19T20:54:44.626Z,86.97
2023-01-19T20:57:15.317Z,87.00
2023-01-19T20:59:45.821Z,86.86
2023-01-19T21:02:17.446Z,86.94
2023-01-19T21:04:48.076Z,86.91
2023-01-19T21:07:19.014Z,87.00
2023-01-19T21:09:49.798Z,87.09
2023-01-19T21:12:23.437Z,87.24
2023-01-19T21:14:54.089Z,87.18
2023-01-19T21:17:24.869Z,87.00
2023-01-19T21:19:55.850Z,86.95
2023-01-19T21:22:26.303Z,87.05
2023-01-19T21:24:56.609Z,86.93
2023-01-19T21:27:27.247Z,86.96
2023-01-19T21:29:58.563Z,87.13
2023-01-19T21:32:29.215Z,87.01
2023-01-19T21:34:59.949Z,86.99
2023-01-19T21:37:31.382Z,86.91
2023-01-19T21:40:01.936Z,87.07
2023-01-19T21:42:32.484Z,87.01
2023-01-19T21:45:02.982Z,87.03
2023-01-19T21:47:35.199Z,87.05
2023-01-19T21:50:06.104Z,87.02
2023-01-19T21:52:37.118Z,86.95
2023-01-19T21:55:08.808Z,86.78
2023-01-19T21:57:39.454Z,86.72
2023-01-19T22:00:12.637Z,86.86
2023-01-19T22:02:46.887Z,86.74
2023-01-19T22:05:26.661Z,86.80
2023-01-19T22:07:57.828Z,86.80
2023-01-19T22:10:28.536Z,86.88
2023-01-19T22:12:59.238Z,86.90
2023-01-19T22:15:31.589Z,86.89
2023-01-19T22:18:02.375Z,86.81
2023-01-19T22:20:33.252Z,86.77
2023-01-19T22:23:04.141Z,86.74
2023-01-19T22:25:36.463Z,86.76
2023-01-19T22:28:06.879Z,86.73
2023-01-19T22:30:37.370Z,86.65
2023-01-19T22:33:08.544Z,86.49
2023-01-19T22:35:39.495Z,86.50
2023-01-19T22:38:09.877Z,86.46
2023-01-19T22:40:40.531Z,86.48
2023-01-19T22:43:10.896Z,86.68
2023-01-19T22:45:44.041Z,86.61
2023-01-19T22:48:17.924Z,86.58
2023-01-19T22:50:48.855Z,86.62
2023-01-19T22:53:19.279Z,86.54
2023-01-19T22:55:49.869Z,86.47
2023-01-19T22:58:21.541Z,86.45
2023-01-19T23:00:52.303Z,86.35
2023-01-19T23:03:23.325Z,86.20
2023-01-19T23:05:54.651Z,86.29
2023-01-19T23:08:25.412Z,86.28
2023-01-19T23:10:55.804Z,86.39
2023-01-19T23:13:26.333Z,86.41
2023-01-19T23:15:58.305Z,86.39
2023-01-19T23:18:29.100Z,86.29
2023-01-19T23:21:05.094Z,86.43
2023-01-19T23:23:35.924Z,86.21
2023-01-19T23:26:08.781Z,86.11
2023-01-19T23:28:39.735Z,86.14
2023-01-19T23:31:18.948Z,86.02
2023-01-19T23:33:49.943Z,86.18
2023-01-19T23:36:21.882Z,86.16
2023-01-19T23:38:53.864Z,86.35
2023-01-19T23:41:25.283Z,86.31
2023-01-19T23:43:56.046Z,86.27
2023-01-19T23:46:26.477Z,86.10
2023-01-19T23:48:57.317Z,86.25
2023-01-19T23:51:30.062Z,86.26
2023-01-19T23:54:04.012Z,86.28
2023-01-19T23:56:36.845Z,86.28
2023-01-19T23:59:08.769Z,86.37
